Allamuchy Township, New Jersey
Current Conditions -  °F | °C
As of 11:53 PM on Thursday 20 Nov 2014 (Local Time) from KSMQ Reporting Station
Clear Clear  
Wind Chill: 22°   Ceiling: Unl
Heat Index: 29°   Visibility: 10mi
Dew Point:   Wind: 7mph
Humidity: 40%   Direction: 300°WNW
Pressure: 30.05"   Gusts: NA
Location:  40.8661°N, 74.8361°W
Report Text: KSMQ 210453Z AUTO 30006KT 10SM CLR M02/M14 A3005 RMK AO2 SLP179 T10171139 400781078
Loading
Personal Weather Stations






























Interactive Weather Map New forecast layout! Learn more

10-Day Weather Forecast

Advertisements
Track Severe Weather on mobile